sensor_id;sensor_type;location;lat;lon;timestamp;temperature;humidity
6373;DHT22;3219;51.362;7.074;2022-09-24T00:02:25;13.90;99.90
6373;DHT22;3219;51.362;7.074;2022-09-24T00:04:52;13.90;99.90
6373;DHT22;3219;51.362;7.074;2022-09-24T00:07:20;13.80;99.90
6373;DHT22;3219;51.362;7.074;2022-09-24T00:09:47;13.80;99.90
6373;DHT22;3219;51.362;7.074;2022-09-24T00:12:13;13.80;99.90
6373;DHT22;3219;51.362;7.074;2022-09-24T00:14:40;13.80;99.90
6373;DHT22;3219;51.362;7.074;2022-09-24T00:17:07;13.80;99.90
6373;DHT22;3219;51.362;7.074;2022-09-24T00:19:34;13.80;99.90
6373;DHT22;3219;51.362;7.074;2022-09-24T00:22:01;13.70;99.90
6373;DHT22;3219;51.362;7.074;2022-09-24T00:24:29;13.70;99.90
6373;DHT22;3219;51.362;7.074;2022-09-24T00:27:13;13.70;99.90
6373;DHT22;3219;51.362;7.074;2022-09-24T00:29:40;13.70;99.90
6373;DHT22;3219;51.362;7.074;2022-09-24T00:34:42;13.60;99.90
6373;DHT22;3219;51.362;7.074;2022-09-24T00:37:08;13.60;99.90
6373;DHT22;3219;51.362;7.074;2022-09-24T00:39:36;13.60;99.90
6373;DHT22;3219;51.362;7.074;2022-09-24T00:42:04;13.50;99.90
6373;DHT22;3219;51.362;7.074;2022-09-24T00:44:51;13.50;99.90
6373;DHT22;3219;51.362;7.074;2022-09-24T00:49:48;13.50;99.90
6373;DHT22;3219;51.362;7.074;2022-09-24T00:52:17;13.50;99.90
6373;DHT22;3219;51.362;7.074;2022-09-24T00:54:45;13.50;99.90
6373;DHT22;3219;51.362;7.074;2022-09-24T00:57:13;13.50;99.90
6373;DHT22;3219;51.362;7.074;2022-09-24T00:59:40;13.50;99.90
6373;DHT22;3219;51.362;7.074;2022-09-24T01:02:07;13.50;99.90
6373;DHT22;3219;51.362;7.074;2022-09-24T01:04:34;13.50;99.90
6373;DHT22;3219;51.362;7.074;2022-09-24T01:07:01;13.50;99.90
6373;DHT22;3219;51.362;7.074;2022-09-24T01:09:28;13.50;99.90
6373;DHT22;3219;51.362;7.074;2022-09-24T01:12:02;13.50;99.90
6373;DHT22;3219;51.362;7.074;2022-09-24T01:14:52;13.50;99.90
6373;DHT22;3219;51.362;7.074;2022-09-24T01:17:27;13.40;99.90
6373;DHT22;3219;51.362;7.074;2022-09-24T01:23:14;13.40;99.90
6373;DHT22;3219;51.362;7.074;2022-09-24T01:25:54;13.40;99.90
6373;DHT22;3219;51.362;7.074;2022-09-24T01:28:32;13.40;99.90
6373;DHT22;3219;51.362;7.074;2022-09-24T01:31:06;13.40;99.90
6373;DHT22;3219;51.362;7.074;2022-09-24T01:33:35;13.40;99.90
6373;DHT22;3219;51.362;7.074;2022-09-24T01:36:03;13.40;99.90
6373;DHT22;3219;51.362;7.074;2022-09-24T01:38:36;13.40;99.90
6373;DHT22;3219;51.362;7.074;2022-09-24T01:41:06;13.50;99.90
6373;DHT22;3219;51.362;7.074;2022-09-24T01:43:35;13.40;99.90
6373;DHT22;3219;51.362;7.074;2022-09-24T01:46:05;13.50;99.90
6373;DHT22;3219;51.362;7.074;2022-09-24T01:48:34;13.50;99.90
6373;DHT22;3219;51.362;7.074;2022-09-24T01:51:05;13.40;99.90
6373;DHT22;3219;51.362;7.074;2022-09-24T01:53:39;13.40;99.90
6373;DHT22;3219;51.362;7.074;2022-09-24T01:56:12;13.30;99.90
6373;DHT22;3219;51.362;7.074;2022-09-24T01:58:45;13.40;99.90
6373;DHT22;3219;51.362;7.074;2022-09-24T02:01:20;13.50;99.90
6373;DHT22;3219;51.362;7.074;2022-09-24T02:03:50;13.50;99.90
6373;DHT22;3219;51.362;7.074;2022-09-24T02:06:22;13.40;99.90
6373;DHT22;3219;51.362;7.074;2022-09-24T02:08:50;13.40;99.90
6373;DHT22;3219;51.362;7.074;2022-09-24T02:11:19;13.40;99.90
6373;DHT22;3219;51.362;7.074;2022-09-24T02:13:50;13.40;99.90
6373;DHT22;3219;51.362;7.074;2022-09-24T02:16:24;13.30;99.90
6373;DHT22;3219;51.362;7.074;2022-09-24T02:18:56;13.40;99.90
6373;DHT22;3219;51.362;7.074;2022-09-24T02:21:24;13.30;99.90
6373;DHT22;3219;51.362;7.074;2022-09-24T02:23:58;13.30;99.90
6373;DHT22;3219;51.362;7.074;2022-09-24T02:26:26;13.30;99.90
6373;DHT22;3219;51.362;7.074;2022-09-24T02:28:52;13.30;99.90
6373;DHT22;3219;51.362;7.074;2022-09-24T02:31:23;13.30;99.90
6373;DHT22;3219;51.362;7.074;2022-09-24T02:33:51;13.30;99.90
6373;DHT22;3219;51.362;7.074;2022-09-24T02:36:35;13.30;99.90
6373;DHT22;3219;51.362;7.074;2022-09-24T02:39:03;13.30;99.90
6373;DHT22;3219;51.362;7.074;2022-09-24T02:41:30;13.30;99.90
6373;DHT22;3219;51.362;7.074;2022-09-24T02:43:57;13.30;99.90
6373;DHT22;3219;51.362;7.074;2022-09-24T02:46:26;13.30;99.90
6373;DHT22;3219;51.362;7.074;2022-09-24T02:48:52;13.30;99.90
6373;DHT22;3219;51.362;7.074;2022-09-24T02:51:19;13.30;99.90
6373;DHT22;3219;51.362;7.074;2022-09-24T02:53:46;13.30;99.90
6373;DHT22;3219;51.362;7.074;2022-09-24T02:56:13;13.30;99.90
6373;DHT22;3219;51.362;7.074;2022-09-24T02:58:40;13.30;99.90
6373;DHT22;3219;51.362;7.074;2022-09-24T03:01:07;13.30;99.90
6373;DHT22;3219;51.362;7.074;2022-09-24T03:03:35;13.30;99.90
6373;DHT22;3219;51.362;7.074;2022-09-24T03:06:02;13.30;99.90
6373;DHT22;3219;51.362;7.074;2022-09-24T03:08:29;13.30;99.90
6373;DHT22;3219;51.362;7.074;2022-09-24T03:10:57;13.30;99.90
6373;DHT22;3219;51.362;7.074;2022-09-24T03:13:24;13.30;99.90
6373;DHT22;3219;51.362;7.074;2022-09-24T03:15:51;13.30;99.90
6373;DHT22;3219;51.362;7.074;2022-09-24T03:18:17;13.20;99.90
6373;DHT22;3219;51.362;7.074;2022-09-24T03:20:54;13.20;99.90
6373;DHT22;3219;51.362;7.074;2022-09-24T03:23:21;13.20;99.90
6373;DHT22;3219;51.362;7.074;2022-09-24T03:25:48;13.20;99.90
6373;DHT22;3219;51.362;7.074;2022-09-24T03:28:15;13.20;99.90
6373;DHT22;3219;51.362;7.074;2022-09-24T03:30:42;13.20;99.90
6373;DHT22;3219;51.362;7.074;2022-09-24T03:33:29;13.20;99.90
6373;DHT22;3219;51.362;7.074;2022-09-24T03:35:58;13.20;99.90
6373;DHT22;3219;51.362;7.074;2022-09-24T03:38:26;13.10;99.90
6373;DHT22;3219;51.362;7.074;2022-09-24T03:40:53;13.10;99.90
6373;DHT22;3219;51.362;7.074;2022-09-24T03:43:20;13.10;99.90
6373;DHT22;3219;51.362;7.074;2022-09-24T03:45:47;13.10;99.90
6373;DHT22;3219;51.362;7.074;2022-09-24T03:48:14;13.00;99.90
6373;DHT22;3219;51.362;7.074;2022-09-24T03:50:41;12.90;99.90
6373;DHT22;3219;51.362;7.074;2022-09-24T03:53:09;12.90;99.90
6373;DHT22;3219;51.362;7.074;2022-09-24T03:55:41;12.90;99.90
6373;DHT22;3219;51.362;7.074;2022-09-24T03:58:09;12.90;99.90
6373;DHT22;3219;51.362;7.074;2022-09-24T04:00:36;12.80;99.90
6373;DHT22;3219;51.362;7.074;2022-09-24T04:03:03;12.70;99.90
6373;DHT22;3219;51.362;7.074;2022-09-24T04:07:58;12.70;99.90
6373;DHT22;3219;51.362;7.074;2022-09-24T04:12:53;12.70;99.90
6373;DHT22;3219;51.362;7.074;2022-09-24T04:15:20;12.70;99.90
6373;DHT22;3219;51.362;7.074;2022-09-24T04:17:49;12.70;99.90
6373;DHT22;3219;51.362;7.074;2022-09-24T04:20:16;12.70;99.90
6373;DHT22;3219;51.362;7.074;2022-09-24T04:22:46;12.70;99.90
6373;DHT22;3219;51.362;7.074;2022-09-24T04:25:13;12.70;99.90
6373;DHT22;3219;51.362;7.074;2022-09-24T04:27:41;12.70;99.90
6373;DHT22;3219;51.362;7.074;2022-09-24T04:30:09;12.70;99.90
6373;DHT22;3219;51.362;7.074;2022-09-24T04:32:37;12.70;99.90
6373;DHT22;3219;51.362;7.074;2022-09-24T04:35:04;12.70;99.90
6373;DHT22;3219;51.362;7.074;2022-09-24T04:37:31;12.70;99.90
6373;DHT22;3219;51.362;7.074;2022-09-24T04:39:58;12.70;99.90
6373;DHT22;3219;51.362;7.074;2022-09-24T04:42:24;12.70;99.90
6373;DHT22;3219;51.362;7.074;2022-09-24T04:47:20;12.60;99.90
6373;DHT22;3219;51.362;7.074;2022-09-24T04:49:48;12.70;99.90
6373;DHT22;3219;51.362;7.074;2022-09-24T04:52:15;12.70;99.90
6373;DHT22;3219;51.362;7.074;2022-09-24T04:54:42;12.70;99.90
6373;DHT22;3219;51.362;7.074;2022-09-24T04:57:11;12.70;99.90
6373;DHT22;3219;51.362;7.074;2022-09-24T04:59:38;12.70;99.90
6373;DHT22;3219;51.362;7.074;2022-09-24T05:02:06;12.70;99.90
6373;DHT22;3219;51.362;7.074;2022-09-24T05:04:33;12.70;99.90
6373;DHT22;3219;51.362;7.074;2022-09-24T05:07:01;12.70;99.90
6373;DHT22;3219;51.362;7.074;2022-09-24T05:16:51;12.60;99.90
6373;DHT22;3219;51.362;7.074;2022-09-24T05:19:19;12.50;99.90
6373;DHT22;3219;51.362;7.074;2022-09-24T05:24:13;12.60;99.90
6373;DHT22;3219;51.362;7.074;2022-09-24T05:26:40;12.50;99.90
6373;DHT22;3219;51.362;7.074;2022-09-24T05:29:24;12.70;99.90
6373;DHT22;3219;51.362;7.074;2022-09-24T05:31:51;12.70;99.90
6373;DHT22;3219;51.362;7.074;2022-09-24T05:36:46;12.60;99.90
6373;DHT22;3219;51.362;7.074;2022-09-24T05:39:13;12.60;99.90
6373;DHT22;3219;51.362;7.074;2022-09-24T05:41:40;12.60;99.90
6373;DHT22;3219;51.362;7.074;2022-09-24T05:46:36;12.70;99.90
